sensor_id;sensor_type;location;lat;lon;timestamp;P1;durP1;ratioP1;P2;durP2;ratioP2
44722;SDS011;30451;48.638;10.624;2023-09-30T00:00:56;4.15;;;2.72;;
44722;SDS011;30451;48.638;10.624;2023-09-30T00:03:22;4.30;;;2.58;;
44722;SDS011;30451;48.638;10.624;2023-09-30T00:05:48;4.40;;;2.50;;
44722;SDS011;30451;48.638;10.624;2023-09-30T00:08:13;4.10;;;2.50;;
44722;SDS011;30451;48.638;10.624;2023-09-30T00:10:39;4.82;;;2.80;;
44722;SDS011;30451;48.638;10.624;2023-09-30T00:13:05;4.45;;;2.80;;
44722;SDS011;30451;48.638;10.624;2023-09-30T00:15:33;4.18;;;2.47;;
44722;SDS011;30451;48.638;10.624;2023-09-30T00:17:59;4.32;;;2.63;;
44722;SDS011;30451;48.638;10.624;2023-09-30T00:20:26;5.72;;;2.88;;
44722;SDS011;30451;48.638;10.624;2023-09-30T00:22:52;4.90;;;2.95;;
44722;SDS011;30451;48.638;10.624;2023-09-30T00:25:18;4.57;;;2.88;;
44722;SDS011;30451;48.638;10.624;2023-09-30T00:27:45;4.18;;;2.60;;
44722;SDS011;30451;48.638;10.624;2023-09-30T00:30:11;3.95;;;2.38;;
44722;SDS011;30451;48.638;10.624;2023-09-30T00:32:37;4.90;;;2.80;;
44722;SDS011;30451;48.638;10.624;2023-09-30T00:35:04;4.90;;;2.70;;
44722;SDS011;30451;48.638;10.624;2023-09-30T00:37:34;4.45;;;2.80;;
44722;SDS011;30451;48.638;10.624;2023-09-30T00:39:59;4.65;;;2.65;;
44722;SDS011;30451;48.638;10.624;2023-09-30T00:42:25;4.38;;;2.65;;
44722;SDS011;30451;48.638;10.624;2023-09-30T00:44:51;4.60;;;2.75;;
44722;SDS011;30451;48.638;10.624;2023-09-30T00:47:17;4.93;;;2.80;;
44722;SDS011;30451;48.638;10.624;2023-09-30T00:49:45;4.85;;;2.78;;
44722;SDS011;30451;48.638;10.624;2023-09-30T00:52:11;4.43;;;2.83;;
44722;SDS011;30451;48.638;10.624;2023-09-30T00:54:37;4.65;;;2.80;;
44722;SDS011;30451;48.638;10.624;2023-09-30T00:57:04;4.63;;;2.72;;
44722;SDS011;30451;48.638;10.624;2023-09-30T00:59:31;3.88;;;2.55;;
44722;SDS011;30451;48.638;10.624;2023-09-30T01:01:58;3.80;;;2.63;;
44722;SDS011;30451;48.638;10.624;2023-09-30T01:04:26;3.80;;;2.33;;
44722;SDS011;30451;48.638;10.624;2023-09-30T01:06:52;4.43;;;2.65;;
44722;SDS011;30451;48.638;10.624;2023-09-30T01:09:18;4.93;;;2.72;;
44722;SDS011;30451;48.638;10.624;2023-09-30T01:11:45;4.47;;;2.90;;
44722;SDS011;30451;48.638;10.624;2023-09-30T01:16:52;4.85;;;2.90;;
44722;SDS011;30451;48.638;10.624;2023-09-30T01:19:18;5.05;;;2.97;;
44722;SDS011;30451;48.638;10.624;2023-09-30T01:21:56;4.32;;;2.63;;
44722;SDS011;30451;48.638;10.624;2023-09-30T01:24:28;4.72;;;2.88;;
44722;SDS011;30451;48.638;10.624;2023-09-30T01:29:20;4.22;;;2.53;;
44722;SDS011;30451;48.638;10.624;2023-09-30T01:31:47;4.22;;;2.50;;
44722;SDS011;30451;48.638;10.624;2023-09-30T01:34:13;4.88;;;2.80;;
44722;SDS011;30451;48.638;10.624;2023-09-30T01:36:40;4.47;;;2.47;;
44722;SDS011;30451;48.638;10.624;2023-09-30T01:39:07;4.63;;;2.70;;
44722;SDS011;30451;48.638;10.624;2023-09-30T01:41:33;4.70;;;2.63;;
44722;SDS011;30451;48.638;10.624;2023-09-30T01:43:58;5.15;;;2.83;;
44722;SDS011;30451;48.638;10.624;2023-09-30T01:46:24;4.90;;;2.88;;
44722;SDS011;30451;48.638;10.624;2023-09-30T01:48:49;4.82;;;3.05;;
44722;SDS011;30451;48.638;10.624;2023-09-30T01:51:15;4.43;;;2.88;;
44722;SDS011;30451;48.638;10.624;2023-09-30T01:53:41;4.80;;;2.90;;
44722;SDS011;30451;48.638;10.624;2023-09-30T01:56:07;4.18;;;2.65;;
44722;SDS011;30451;48.638;10.624;2023-09-30T01:58:33;3.92;;;2.40;;
44722;SDS011;30451;48.638;10.624;2023-09-30T02:01:02;4.38;;;2.58;;
44722;SDS011;30451;48.638;10.624;2023-09-30T02:03:29;4.30;;;2.75;;
44722;SDS011;30451;48.638;10.624;2023-09-30T02:05:55;4.63;;;2.63;;
44722;SDS011;30451;48.638;10.624;2023-09-30T02:08:21;4.68;;;2.78;;
44722;SDS011;30451;48.638;10.624;2023-09-30T02:10:47;4.38;;;2.60;;
44722;SDS011;30451;48.638;10.624;2023-09-30T02:13:13;4.47;;;2.78;;
44722;SDS011;30451;48.638;10.624;2023-09-30T02:15:41;4.97;;;2.58;;
44722;SDS011;30451;48.638;10.624;2023-09-30T02:18:07;4.47;;;2.50;;
44722;SDS011;30451;48.638;10.624;2023-09-30T02:20:34;4.40;;;2.72;;
44722;SDS011;30451;48.638;10.624;2023-09-30T02:23:01;5.05;;;2.90;;
44722;SDS011;30451;48.638;10.624;2023-09-30T02:25:27;4.47;;;2.53;;
44722;SDS011;30451;48.638;10.624;2023-09-30T02:27:53;4.22;;;2.53;;
44722;SDS011;30451;48.638;10.624;2023-09-30T02:30:19;5.07;;;2.80;;
44722;SDS011;30451;48.638;10.624;2023-09-30T02:32:46;4.45;;;2.75;;
44722;SDS011;30451;48.638;10.624;2023-09-30T02:35:12;4.85;;;2.88;;
44722;SDS011;30451;48.638;10.624;2023-09-30T02:37:38;4.53;;;2.50;;
44722;SDS011;30451;48.638;10.624;2023-09-30T02:40:05;5.25;;;3.10;;
44722;SDS011;30451;48.638;10.624;2023-09-30T02:42:36;5.25;;;2.80;;
44722;SDS011;30451;48.638;10.624;2023-09-30T02:47:31;5.20;;;2.70;;
44722;SDS011;30451;48.638;10.624;2023-09-30T02:49:57;4.68;;;2.42;;
44722;SDS011;30451;48.638;10.624;2023-09-30T02:52:23;5.05;;;2.80;;
44722;SDS011;30451;48.638;10.624;2023-09-30T02:54:50;4.43;;;2.60;;
44722;SDS011;30451;48.638;10.624;2023-09-30T02:57:17;5.28;;;2.65;;
44722;SDS011;30451;48.638;10.624;2023-09-30T02:59:43;5.13;;;2.90;;
44722;SDS011;30451;48.638;10.624;2023-09-30T03:02:09;4.75;;;2.70;;
44722;SDS011;30451;48.638;10.624;2023-09-30T03:04:36;5.07;;;2.63;;
44722;SDS011;30451;48.638;10.624;2023-09-30T03:07:02;5.13;;;2.90;;
44722;SDS011;30451;48.638;10.624;2023-09-30T03:09:27;4.53;;;2.50;;
44722;SDS011;30451;48.638;10.624;2023-09-30T03:11:53;4.22;;;2.55;;
44722;SDS011;30451;48.638;10.624;2023-09-30T03:14:21;4.32;;;2.30;;
44722;SDS011;30451;48.638;10.624;2023-09-30T03:16:48;4.68;;;2.75;;
44722;SDS011;30451;48.638;10.624;2023-09-30T03:19:14;4.20;;;2.55;;
44722;SDS011;30451;48.638;10.624;2023-09-30T03:21:41;4.63;;;2.67;;
44722;SDS011;30451;48.638;10.624;2023-09-30T03:24:07;4.72;;;2.80;;
44722;SDS011;30451;48.638;10.624;2023-09-30T03:26:33;5.00;;;2.67;;
44722;SDS011;30451;48.638;10.624;2023-09-30T03:28:59;5.10;;;2.65;;
44722;SDS011;30451;48.638;10.624;2023-09-30T03:31:25;5.00;;;3.03;;
44722;SDS011;30451;48.638;10.624;2023-09-30T03:33:51;5.15;;;2.70;;
44722;SDS011;30451;48.638;10.624;2023-09-30T03:36:22;4.95;;;2.95;;
44722;SDS011;30451;48.638;10.624;2023-09-30T03:38:49;4.25;;;2.58;;
44722;SDS011;30451;48.638;10.624;2023-09-30T03:41:15;4.80;;;2.63;;
44722;SDS011;30451;48.638;10.624;2023-09-30T03:43:41;4.63;;;2.72;;
44722;SDS011;30451;48.638;10.624;2023-09-30T03:46:07;4.63;;;3.03;;
44722;SDS011;30451;48.638;10.624;2023-09-30T03:48:33;4.38;;;2.42;;
44722;SDS011;30451;48.638;10.624;2023-09-30T03:51:13;4.22;;;2.60;;
44722;SDS011;30451;48.638;10.624;2023-09-30T03:53:42;5.00;;;2.72;;
44722;SDS011;30451;48.638;10.624;2023-09-30T03:56:10;3.95;;;2.35;;
44722;SDS011;30451;48.638;10.624;2023-09-30T03:58:38;4.78;;;2.90;;
44722;SDS011;30451;48.638;10.624;2023-09-30T04:01:07;3.85;;;2.40;;
44722;SDS011;30451;48.638;10.624;2023-09-30T04:03:36;4.97;;;3.00;;
44722;SDS011;30451;48.638;10.624;2023-09-30T04:06:05;4.70;;;2.75;;
44722;SDS011;30451;48.638;10.624;2023-09-30T04:08:34;4.38;;;2.88;;
44722;SDS011;30451;48.638;10.624;2023-09-30T04:11:00;3.65;;;2.30;;
44722;SDS011;30451;48.638;10.624;2023-09-30T04:13:28;4.63;;;2.65;;
44722;SDS011;30451;48.638;10.624;2023-09-30T04:15:54;4.65;;;2.70;;
44722;SDS011;30451;48.638;10.624;2023-09-30T04:18:20;4.47;;;2.53;;
44722;SDS011;30451;48.638;10.624;2023-09-30T04:20:47;4.18;;;2.40;;
44722;SDS011;30451;48.638;10.624;2023-09-30T04:23:13;5.47;;;3.20;;
44722;SDS011;30451;48.638;10.624;2023-09-30T04:25:40;4.47;;;2.60;;
44722;SDS011;30451;48.638;10.624;2023-09-30T04:28:07;4.78;;;2.90;;
44722;SDS011;30451;48.638;10.624;2023-09-30T04:30:34;4.22;;;2.55;;
44722;SDS011;30451;48.638;10.624;2023-09-30T04:33:00;4.95;;;3.00;;
44722;SDS011;30451;48.638;10.624;2023-09-30T04:35:29;4.72;;;2.92;;
44722;SDS011;30451;48.638;10.624;2023-09-30T04:37:55;4.38;;;2.67;;
44722;SDS011;30451;48.638;10.624;2023-09-30T04:40:22;4.93;;;2.88;;
44722;SDS011;30451;48.638;10.624;2023-09-30T04:42:48;4.95;;;2.47;;
44722;SDS011;30451;48.638;10.624;2023-09-30T04:45:14;4.43;;;2.83;;
44722;SDS011;30451;48.638;10.624;2023-09-30T04:47:49;4.03;;;2.58;;
44722;SDS011;30451;48.638;10.624;2023-09-30T04:50:15;5.57;;;3.22;;
44722;SDS011;30451;48.638;10.624;2023-09-30T04:52:41;4.47;;;2.65;;
44722;SDS011;30451;48.638;10.624;2023-09-30T04:55:07;4.80;;;2.65;;
44722;SDS011;30451;48.638;10.624;2023-09-30T04:57:34;4.97;;;2.95;;
44722;SDS011;30451;48.638;10.624;2023-09-30T05:00:00;5.10;;;2.80;;
44722;SDS011;30451;48.638;10.624;2023-09-30T05:02:27;4.22;;;2.50;;
44722;SDS011;30451;48.638;10.624;2023-09-30T05:04:53;4.20;;;2.50;;
44722;SDS011;30451;48.638;10.624;2023-09-30T05:07:19;4.30;;;2.65;;
44722;SDS011;30451;48.638;10.624;2023-09-30T05:09:49;4.15;;;2.45;;
44722;SDS011;30451;48.638;10.624;2023-09-30T05:12:14;4.00;;;2.60;;
44722;SDS011;30451;48.638;10.624;2023-09-30T05:14:41;4.97;;;2.88;;
44722;SDS011;30451;48.638;10.624;2023-09-30T05:17:07;4.55;;;2.50;;
44722;SDS011;30451;48.638;10.624;2023-09-30T05:19:33;4.90;;;2.95;;
44722;SDS011;30451;48.638;10.624;2023-09-30T05:21:59;5.05;;;2.78;;
44722;SDS011;30451;48.638;10.624;2023-09-30T05:24:25;4.40;;;2.40;;
44722;SDS011;30451;48.638;10.624;2023-09-30T05:26:52;4.88;;;2.90;;
44722;SDS011;30451;48.638;10.624;2023-09-30T05:29:18;4.80;;;2.78;;
44722;SDS011;30451;48.638;10.624;2023-09-30T05:31:43;4.75;;;2.90;;
44722;SDS011;30451;48.638;10.624;2023-09-30T05:34:10;4.63;;;2.70;;
44722;SDS011;30451;48.638;10.624;2023-09-30T05:36:36;5.30;;;2.90;;
44722;SDS011;30451;48.638;10.624;2023-09-30T05:39:01;4.80;;;2.97;;
44722;SDS011;30451;48.638;10.624;2023-09-30T05:41:28;5.30;;;2.95;;
44722;SDS011;30451;48.638;10.624;2023-09-30T05:43:54;4.38;;;2.50;;
44722;SDS011;30451;48.638;10.624;2023-09-30T05:46:20;4.93;;;2.92;;
44722;SDS011;30451;48.638;10.624;2023-09-30T05:48:46;4.22;;;2.65;;
44722;SDS011;30451;48.638;10.624;2023-09-30T05:51:12;4.35;;;2.50;;
44722;SDS011;30451;48.638;10.624;2023-09-30T05:53:41;4.97;;;2.60;;
44722;SDS011;30451;48.638;10.624;2023-09-30T05:56:07;4.80;;;2.90;;
44722;SDS011;30451;48.638;10.624;2023-09-30T05:58:33;5.78;;;2.85;;
44722;SDS011;30451;48.638;10.624;2023-09-30T06:00:58;5.10;;;2.83;;
44722;SDS011;30451;48.638;10.624;2023-09-30T06:03:25;4.70;;;2.60;;
44722;SDS011;30451;48.638;10.624;2023-09-30T06:05:54;5.22;;;2.83;;
44722;SDS011;30451;48.638;10.624;2023-09-30T06:08:21;4.82;;;2.72;;
44722;SDS011;30451;48.638;10.624;2023-09-30T06:10:46;5.25;;;2.90;;
44722;SDS011;30451;48.638;10.624;2023-09-30T06:13:12;5.07;;;2.70;;
44722;SDS011;30451;48.638;10.624;2023-09-30T06:15:40;4.82;;;2.50;;
44722;SDS011;30451;48.638;10.624;2023-09-30T06:18:07;5.57;;;2.72;;
44722;SDS011;30451;48.638;10.624;2023-09-30T06:20:34;3.88;;;2.28;;
44722;SDS011;30451;48.638;10.624;2023-09-30T06:23:00;4.68;;;2.72;;
44722;SDS011;30451;48.638;10.624;2023-09-30T06:25:26;4.63;;;2.75;;
44722;SDS011;30451;48.638;10.624;2023-09-30T06:27:53;3.85;;;2.40;;
44722;SDS011;30451;48.638;10.624;2023-09-30T06:30:22;4.85;;;2.65;;
44722;SDS011;30451;48.638;10.624;2023-09-30T06:32:54;4.03;;;2.45;;
44722;SDS011;30451;48.638;10.624;2023-09-30T06:35:21;4.70;;;2.58;;
44722;SDS011;30451;48.638;10.624;2023-09-30T06:37:47;4.57;;;2.50;;
44722;SDS011;30451;48.638;10.624;2023-09-30T06:40:12;4.00;;;2.65;;
44722;SDS011;30451;48.638;10.624;2023-09-30T06:42:38;3.72;;;2.47;;
44722;SDS011;30451;48.638;10.624;2023-09-30T06:45:05;5.28;;;3.00;;
44722;SDS011;30451;48.638;10.624;2023-09-30T06:47:34;4.63;;;2.50;;
44722;SDS011;30451;48.638;10.624;2023-09-30T06:50:05;4.63;;;2.65;;
44722;SDS011;30451;48.638;10.624;2023-09-30T06:52:40;4.38;;;2.55;;
44722;SDS011;30451;48.638;10.624;2023-09-30T06:55:07;4.97;;;2.60;;
44722;SDS011;30451;48.638;10.624;2023-09-30T06:57:37;5.10;;;2.63;;
44722;SDS011;30451;48.638;10.624;2023-09-30T07:00:12;4.72;;;2.63;;
44722;SDS011;30451;48.638;10.624;2023-09-30T07:02:39;5.45;;;2.78;;
44722;SDS011;30451;48.638;10.624;2023-09-30T07:05:09;4.32;;;2.50;;
44722;SDS011;30451;48.638;10.624;2023-09-30T07:10:00;4.30;;;2.50;;
44722;SDS011;30451;48.638;10.624;2023-09-30T07:12:26;3.83;;;2.30;;
44722;SDS011;30451;48.638;10.624;2023-09-30T07:14:52;4.18;;;2.47;;
44722;SDS011;30451;48.638;10.624;2023-09-30T07:17:18;4.35;;;2.70;;
44722;SDS011;30451;48.638;10.624;2023-09-30T07:19:44;4.13;;;2.60;;
44722;SDS011;30451;48.638;10.624;2023-09-30T07:22:09;4.75;;;2.58;;
44722;SDS011;30451;48.638;10.624;2023-09-30T07:24:35;5.07;;;2.65;;
44722;SDS011;30451;48.638;10.624;2023-09-30T07:27:01;4.90;;;2.60;;
44722;SDS011;30451;48.638;10.624;2023-09-30T07:29:27;4.38;;;2.38;;
44722;SDS011;30451;48.638;10.624;2023-09-30T07:31:52;4.80;;;2.42;;
44722;SDS011;30451;48.638;10.624;2023-09-30T07:34:18;3.78;;;2.30;;
44722;SDS011;30451;48.638;10.624;2023-09-30T07:36:44;4.18;;;2.33;;
44722;SDS011;30451;48.638;10.624;2023-09-30T07:39:09;4.38;;;2.40;;
44722;SDS011;30451;48.638;10.624;2023-09-30T07:41:35;4.22;;;2.50;;
44722;SDS011;30451;48.638;10.624;2023-09-30T07:44:03;4.20;;;2.50;;
44722;SDS011;30451;48.638;10.624;2023-09-30T07:46:30;3.83;;;2.30;;
44722;SDS011;30451;48.638;10.624;2023-09-30T07:48:56;3.67;;;2.15;;
44722;SDS011;30451;48.638;10.624;2023-09-30T07:51:24;3.60;;;2.28;;
44722;SDS011;30451;48.638;10.624;2023-09-30T07:53:49;4.22;;;2.30;;
44722;SDS011;30451;48.638;10.624;2023-09-30T07:56:15;4.55;;;2.63;;
44722;SDS011;30451;48.638;10.624;2023-09-30T07:58:41;3.95;;;2.38;;
44722;SDS011;30451;48.638;10.624;2023-09-30T08:01:07;4.15;;;2.35;;
44722;SDS011;30451;48.638;10.624;2023-09-30T08:03:33;4.30;;;2.35;;
44722;SDS011;30451;48.638;10.624;2023-09-30T08:05:59;4.40;;;2.40;;
44722;SDS011;30451;48.638;10.624;2023-09-30T08:08:25;4.57;;;2.50;;
44722;SDS011;30451;48.638;10.624;2023-09-30T08:10:51;4.90;;;2.67;;
44722;SDS011;30451;48.638;10.624;2023-09-30T08:13:20;4.72;;;2.50;;
44722;SDS011;30451;48.638;10.624;2023-09-30T08:15:49;5.05;;;2.88;;
44722;SDS011;30451;48.638;10.624;2023-09-30T08:18:16;4.25;;;2.80;;
44722;SDS011;30451;48.638;10.624;2023-09-30T08:20:42;5.55;;;2.38;;
44722;SDS011;30451;48.638;10.624;2023-09-30T08:23:07;4.07;;;2.40;;
44722;SDS011;30451;48.638;10.624;2023-09-30T08:25:33;4.80;;;2.50;;
44722;SDS011;30451;48.638;10.624;2023-09-30T08:27:58;4.43;;;2.42;;
44722;SDS011;30451;48.638;10.624;2023-09-30T08:30:25;4.15;;;2.35;;
44722;SDS011;30451;48.638;10.624;2023-09-30T08:32:51;3.90;;;2.28;;
44722;SDS011;30451;48.638;10.624;2023-09-30T08:35:16;3.92;;;2.22;;
44722;SDS011;30451;48.638;10.624;2023-09-30T08:37:42;4.43;;;2.28;;
44722;SDS011;30451;48.638;10.624;2023-09-30T08:40:09;4.43;;;2.35;;
44722;SDS011;30451;48.638;10.624;2023-09-30T08:42:35;4.03;;;2.42;;
44722;SDS011;30451;48.638;10.624;2023-09-30T08:45:03;4.28;;;2.47;;
44722;SDS011;30451;48.638;10.624;2023-09-30T08:47:31;3.53;;;2.00;;
44722;SDS011;30451;48.638;10.624;2023-09-30T08:49:59;3.75;;;2.20;;
44722;SDS011;30451;48.638;10.624;2023-09-30T08:52:31;4.18;;;2.28;;
44722;SDS011;30451;48.638;10.624;2023-09-30T08:54:59;4.28;;;2.67;;
44722;SDS011;30451;48.638;10.624;2023-09-30T08:57:24;4.18;;;2.20;;
44722;SDS011;30451;48.638;10.624;2023-09-30T08:59:52;3.95;;;2.08;;
44722;SDS011;30451;48.638;10.624;2023-09-30T09:02:18;3.83;;;2.10;;
44722;SDS011;30451;48.638;10.624;2023-09-30T09:04:45;4.05;;;2.15;;
44722;SDS011;30451;48.638;10.624;2023-09-30T09:07:11;3.50;;;1.80;;
44722;SDS011;30451;48.638;10.624;2023-09-30T09:09:37;3.72;;;2.10;;
44722;SDS011;30451;48.638;10.624;2023-09-30T09:12:03;4.07;;;2.05;;
44722;SDS011;30451;48.638;10.624;2023-09-30T09:14:39;3.80;;;2.20;;
44722;SDS011;30451;48.638;10.624;2023-09-30T09:17:06;3.95;;;2.40;;
44722;SDS011;30451;48.638;10.624;2023-09-30T09:19:33;4.15;;;2.28;;
44722;SDS011;30451;48.638;10.624;2023-09-30T09:21:59;3.80;;;2.20;;
44722;SDS011;30451;48.638;10.624;2023-09-30T09:24:28;4.20;;;2.10;;
44722;SDS011;30451;48.638;10.624;2023-09-30T09:27:10;3.22;;;1.95;;
44722;SDS011;30451;48.638;10.624;2023-09-30T09:29:38;4.43;;;2.15;;
44722;SDS011;30451;48.638;10.624;2023-09-30T09:32:11;3.95;;;2.17;;
44722;SDS011;30451;48.638;10.624;2023-09-30T09:34:42;3.78;;;2.28;;
44722;SDS011;30451;48.638;10.624;2023-09-30T09:37:19;4.50;;;2.28;;
44722;SDS011;30451;48.638;10.624;2023-09-30T09:40:04;4.05;;;2.30;;
44722;SDS011;30451;48.638;10.624;2023-09-30T09:42:32;3.35;;;1.95;;
44722;SDS011;30451;48.638;10.624;2023-09-30T09:45:00;4.18;;;2.20;;
44722;SDS011;30451;48.638;10.624;2023-09-30T09:47:31;3.65;;;2.00;;
44722;SDS011;30451;48.638;10.624;2023-09-30T09:49:58;3.80;;;2.00;;
44722;SDS011;30451;48.638;10.624;2023-09-30T09:52:24;3.55;;;2.10;;
44722;SDS011;30451;48.638;10.624;2023-09-30T09:54:51;3.63;;;2.10;;
44722;SDS011;30451;48.638;10.624;2023-09-30T09:57:17;3.58;;;2.20;;
44722;SDS011;30451;48.638;10.624;2023-09-30T09:59:46;4.15;;;2.40;;
44722;SDS011;30451;48.638;10.624;2023-09-30T10:02:12;3.33;;;1.80;;
44722;SDS011;30451;48.638;10.624;2023-09-30T10:04:43;3.15;;;1.80;;
44722;SDS011;30451;48.638;10.624;2023-09-30T10:07:52;3.65;;;2.28;;
44722;SDS011;30451;48.638;10.624;2023-09-30T10:10:01;3.95;;;2.15;;
44722;SDS011;30451;48.638;10.624;2023-09-30T10:12:35;3.85;;;2.15;;
44722;SDS011;30451;48.638;10.624;2023-09-30T10:15:27;3.40;;;1.98;;
44722;SDS011;30451;48.638;10.624;2023-09-30T10:20:28;4.38;;;2.25;;
44722;SDS011;30451;48.638;10.624;2023-09-30T10:25:44;3.83;;;2.05;;
44722;SDS011;30451;48.638;10.624;2023-09-30T10:31:18;4.00;;;1.95;;
44722;SDS011;30451;48.638;10.624;2023-09-30T10:36:27;4.05;;;1.92;;
44722;SDS011;30451;48.638;10.624;2023-09-30T10:39:00;3.88;;;2.22;;
44722;SDS011;30451;48.638;10.624;2023-09-30T10:44:32;4.30;;;2.40;;
44722;SDS011;30451;48.638;10.624;2023-09-30T10:49:45;4.10;;;2.30;;
44722;SDS011;30451;48.638;10.624;2023-09-30T10:52:12;3.67;;;2.22;;
44722;SDS011;30451;48.638;10.624;2023-09-30T10:54:49;3.95;;;2.38;;
44722;SDS011;30451;48.638;10.624;2023-09-30T10:57:25;4.10;;;2.17;;
44722;SDS011;30451;48.638;10.624;2023-09-30T11:00:06;3.83;;;2.17;;
44722;SDS011;30451;48.638;10.624;2023-09-30T11:02:47;3.65;;;1.98;;
44722;SDS011;30451;48.638;10.624;2023-09-30T11:05:16;3.60;;;2.03;;
44722;SDS011;30451;48.638;10.624;2023-09-30T11:07:43;3.78;;;2.00;;
44722;SDS011;30451;48.638;10.624;2023-09-30T11:10:15;4.63;;;2.50;;
44722;SDS011;30451;48.638;10.624;2023-09-30T11:12:53;3.33;;;1.85;;
44722;SDS011;30451;48.638;10.624;2023-09-30T11:15:19;3.55;;;2.08;;
44722;SDS011;30451;48.638;10.624;2023-09-30T11:17:45;4.03;;;2.30;;
44722;SDS011;30451;48.638;10.624;2023-09-30T11:20:10;3.42;;;1.88;;
44722;SDS011;30451;48.638;10.624;2023-09-30T11:22:36;3.70;;;2.10;;
44722;SDS011;30451;48.638;10.624;2023-09-30T11:25:04;3.70;;;2.08;;
44722;SDS011;30451;48.638;10.624;2023-09-30T11:27:30;4.80;;;2.30;;
44722;SDS011;30451;48.638;10.624;2023-09-30T11:29:56;3.50;;;2.30;;
44722;SDS011;30451;48.638;10.624;2023-09-30T11:32:26;3.28;;;1.90;;
44722;SDS011;30451;48.638;10.624;2023-09-30T11:34:53;4.00;;;2.08;;
44722;SDS011;30451;48.638;10.624;2023-09-30T11:37:19;3.90;;;2.33;;
44722;SDS011;30451;48.638;10.624;2023-09-30T11:39:46;4.43;;;2.33;;
44722;SDS011;30451;48.638;10.624;2023-09-30T11:42:16;3.80;;;2.10;;
44722;SDS011;30451;48.638;10.624;2023-09-30T11:44:48;3.97;;;2.40;;
44722;SDS011;30451;48.638;10.624;2023-09-30T11:47:15;4.22;;;2.50;;
44722;SDS011;30451;48.638;10.624;2023-09-30T11:49:52;2.75;;;1.67;;
44722;SDS011;30451;48.638;10.624;2023-09-30T11:52:25;3.80;;;2.00;;
44722;SDS011;30451;48.638;10.624;2023-09-30T11:54:51;3.90;;;2.40;;
44722;SDS011;30451;48.638;10.624;2023-09-30T11:57:17;3.70;;;2.20;;
44722;SDS011;30451;48.638;10.624;2023-09-30T11:59:43;3.33;;;2.13;;
44722;SDS011;30451;48.638;10.624;2023-09-30T12:02:10;3.20;;;1.80;;
44722;SDS011;30451;48.638;10.624;2023-09-30T12:04:37;4.55;;;2.22;;
44722;SDS011;30451;48.638;10.624;2023-09-30T12:07:03;3.58;;;1.90;;
44722;SDS011;30451;48.638;10.624;2023-09-30T12:09:32;4.45;;;2.50;;
44722;SDS011;30451;48.638;10.624;2023-09-30T12:12:00;3.33;;;2.08;;
44722;SDS011;30451;48.638;10.624;2023-09-30T12:14:25;3.92;;;2.15;;
44722;SDS011;30451;48.638;10.624;2023-09-30T12:16:51;3.35;;;2.00;;
44722;SDS011;30451;48.638;10.624;2023-09-30T12:19:17;3.25;;;2.20;;
44722;SDS011;30451;48.638;10.624;2023-09-30T12:21:43;4.65;;;2.25;;
44722;SDS011;30451;48.638;10.624;2023-09-30T12:24:12;3.70;;;2.20;;
44722;SDS011;30451;48.638;10.624;2023-09-30T12:26:44;3.45;;;2.03;;
44722;SDS011;30451;48.638;10.624;2023-09-30T12:29:16;3.90;;;2.05;;
44722;SDS011;30451;48.638;10.624;2023-09-30T12:31:46;5.10;;;2.60;;
44722;SDS011;30451;48.638;10.624;2023-09-30T12:34:16;4.15;;;2.40;;
44722;SDS011;30451;48.638;10.624;2023-09-30T12:36:42;3.45;;;2.22;;
44722;SDS011;30451;48.638;10.624;2023-09-30T12:39:09;4.30;;;2.28;;
44722;SDS011;30451;48.638;10.624;2023-09-30T12:41:39;3.88;;;2.30;;
44722;SDS011;30451;48.638;10.624;2023-09-30T12:44:06;4.40;;;2.42;;
44722;SDS011;30451;48.638;10.624;2023-09-30T12:46:32;4.75;;;2.47;;
44722;SDS011;30451;48.638;10.624;2023-09-30T12:49:00;4.25;;;2.35;;
44722;SDS011;30451;48.638;10.624;2023-09-30T12:51:27;3.75;;;2.25;;
44722;SDS011;30451;48.638;10.624;2023-09-30T12:53:53;3.88;;;2.30;;
44722;SDS011;30451;48.638;10.624;2023-09-30T12:56:18;3.63;;;2.33;;
44722;SDS011;30451;48.638;10.624;2023-09-30T12:58:44;3.97;;;2.30;;
44722;SDS011;30451;48.638;10.624;2023-09-30T13:01:09;4.25;;;2.58;;
44722;SDS011;30451;48.638;10.624;2023-09-30T13:03:35;4.18;;;2.40;;
44722;SDS011;30451;48.638;10.624;2023-09-30T13:06:01;4.07;;;2.60;;
44722;SDS011;30451;48.638;10.624;2023-09-30T13:08:27;4.15;;;2.47;;
44722;SDS011;30451;48.638;10.624;2023-09-30T13:10:58;4.13;;;2.40;;
44722;SDS011;30451;48.638;10.624;2023-09-30T13:13:30;4.43;;;2.50;;
44722;SDS011;30451;48.638;10.624;2023-09-30T13:15:58;4.95;;;2.78;;
44722;SDS011;30451;48.638;10.624;2023-09-30T13:18:24;4.68;;;2.72;;
44722;SDS011;30451;48.638;10.624;2023-09-30T13:20:50;4.22;;;2.60;;
44722;SDS011;30451;48.638;10.624;2023-09-30T13:23:17;5.30;;;3.00;;
44722;SDS011;30451;48.638;10.624;2023-09-30T13:25:43;4.70;;;3.10;;
44722;SDS011;30451;48.638;10.624;2023-09-30T13:28:09;5.00;;;3.08;;
44722;SDS011;30451;48.638;10.624;2023-09-30T13:30:35;4.95;;;2.60;;
44722;SDS011;30451;48.638;10.624;2023-09-30T13:33:00;5.15;;;2.70;;
44722;SDS011;30451;48.638;10.624;2023-09-30T13:35:26;4.95;;;2.90;;
44722;SDS011;30451;48.638;10.624;2023-09-30T13:37:52;5.40;;;2.78;;
44722;SDS011;30451;48.638;10.624;2023-09-30T13:40:18;5.72;;;3.00;;
44722;SDS011;30451;48.638;10.624;2023-09-30T13:42:44;4.80;;;2.97;;
44722;SDS011;30451;48.638;10.624;2023-09-30T13:45:10;5.22;;;3.00;;
44722;SDS011;30451;48.638;10.624;2023-09-30T13:47:36;5.13;;;3.03;;
44722;SDS011;30451;48.638;10.624;2023-09-30T13:50:02;3.97;;;2.35;;
44722;SDS011;30451;48.638;10.624;2023-09-30T13:52:32;4.20;;;2.55;;
44722;SDS011;30451;48.638;10.624;2023-09-30T13:54:59;4.70;;;2.90;;
44722;SDS011;30451;48.638;10.624;2023-09-30T13:57:24;4.88;;;2.85;;
44722;SDS011;30451;48.638;10.624;2023-09-30T13:59:50;5.32;;;2.97;;
44722;SDS011;30451;48.638;10.624;2023-09-30T14:02:16;4.75;;;2.90;;
44722;SDS011;30451;48.638;10.624;2023-09-30T14:04:41;4.95;;;2.72;;
44722;SDS011;30451;48.638;10.624;2023-09-30T14:07:07;4.85;;;2.92;;
44722;SDS011;30451;48.638;10.624;2023-09-30T14:09:33;4.70;;;2.67;;
44722;SDS011;30451;48.638;10.624;2023-09-30T14:11:59;5.63;;;2.90;;
44722;SDS011;30451;48.638;10.624;2023-09-30T14:14:24;4.60;;;2.60;;
44722;SDS011;30451;48.638;10.624;2023-09-30T14:16:50;4.95;;;2.90;;
44722;SDS011;30451;48.638;10.624;2023-09-30T14:19:17;4.65;;;2.78;;
44722;SDS011;30451;48.638;10.624;2023-09-30T14:21:42;5.05;;;3.10;;
44722;SDS011;30451;48.638;10.624;2023-09-30T14:24:08;6.03;;;3.40;;
44722;SDS011;30451;48.638;10.624;2023-09-30T14:26:34;5.00;;;3.00;;
44722;SDS011;30451;48.638;10.624;2023-09-30T14:28:59;3.95;;;2.70;;
44722;SDS011;30451;48.638;10.624;2023-09-30T14:31:25;4.70;;;2.80;;
44722;SDS011;30451;48.638;10.624;2023-09-30T14:33:51;4.85;;;2.90;;
44722;SDS011;30451;48.638;10.624;2023-09-30T14:36:17;4.60;;;2.90;;
44722;SDS011;30451;48.638;10.624;2023-09-30T14:38:46;5.13;;;3.10;;
44722;SDS011;30451;48.638;10.624;2023-09-30T14:41:13;5.22;;;2.80;;
44722;SDS011;30451;48.638;10.624;2023-09-30T14:43:39;4.65;;;2.97;;
44722;SDS011;30451;48.638;10.624;2023-09-30T14:46:05;4.97;;;3.10;;
44722;SDS011;30451;48.638;10.624;2023-09-30T14:48:30;4.15;;;2.67;;
44722;SDS011;30451;48.638;10.624;2023-09-30T14:50:56;5.28;;;3.30;;
44722;SDS011;30451;48.638;10.624;2023-09-30T14:53:23;5.55;;;3.03;;
44722;SDS011;30451;48.638;10.624;2023-09-30T14:55:49;5.18;;;3.00;;
44722;SDS011;30451;48.638;10.624;2023-09-30T14:58:15;5.05;;;3.10;;
44722;SDS011;30451;48.638;10.624;2023-09-30T15:00:41;5.20;;;3.20;;